sensor_id;sensor_type;location;lat;lon;timestamp;temperature;humidity
10903;DHT22;5504;47.312;11.060;2024-03-06T00:02:23;5.50;90.70
10903;DHT22;5504;47.312;11.060;2024-03-06T00:04:49;5.40;90.40
10903;DHT22;5504;47.312;11.060;2024-03-06T00:07:15;5.60;90.60
10903;DHT22;5504;47.312;11.060;2024-03-06T00:09:41;5.80;90.20
10903;DHT22;5504;47.312;11.060;2024-03-06T00:12:07;5.90;89.50
10903;DHT22;5504;47.312;11.060;2024-03-06T00:14:33;5.90;88.60
10903;DHT22;5504;47.312;11.060;2024-03-06T00:17:02;5.90;88.30
10903;DHT22;5504;47.312;11.060;2024-03-06T00:19:30;5.90;88.30
10903;DHT22;5504;47.312;11.060;2024-03-06T00:21:55;5.80;88.40
10903;DHT22;5504;47.312;11.060;2024-03-06T00:24:21;5.70;88.20
10903;DHT22;5504;47.312;11.060;2024-03-06T00:26:48;5.90;88.30
10903;DHT22;5504;47.312;11.060;2024-03-06T00:29:14;5.90;87.80
10903;DHT22;5504;47.312;11.060;2024-03-06T00:31:44;5.90;87.90
10903;DHT22;5504;47.312;11.060;2024-03-06T00:34:10;5.90;88.10
10903;DHT22;5504;47.312;11.060;2024-03-06T00:36:37;5.80;88.20
10903;DHT22;5504;47.312;11.060;2024-03-06T00:39:03;5.70;88.60
10903;DHT22;5504;47.312;11.060;2024-03-06T00:41:30;5.70;88.10
10903;DHT22;5504;47.312;11.060;2024-03-06T00:43:56;5.60;88.50
10903;DHT22;5504;47.312;11.060;2024-03-06T00:46:22;5.80;88.90
10903;DHT22;5504;47.312;11.060;2024-03-06T00:48:48;5.80;88.00
10903;DHT22;5504;47.312;11.060;2024-03-06T00:51:13;5.80;87.30
10903;DHT22;5504;47.312;11.060;2024-03-06T00:53:39;5.70;87.10
10903;DHT22;5504;47.312;11.060;2024-03-06T00:56:06;5.60;87.50
10903;DHT22;5504;47.312;11.060;2024-03-06T00:58:32;5.60;87.30
10903;DHT22;5504;47.312;11.060;2024-03-06T01:00:58;5.60;87.70
10903;DHT22;5504;47.312;11.060;2024-03-06T01:03:24;5.60;88.00
10903;DHT22;5504;47.312;11.060;2024-03-06T01:05:50;5.60;87.50
10903;DHT22;5504;47.312;11.060;2024-03-06T01:08:17;5.60;87.80
10903;DHT22;5504;47.312;11.060;2024-03-06T01:10:44;5.50;88.20
10903;DHT22;5504;47.312;11.060;2024-03-06T01:13:10;5.50;88.50
10903;DHT22;5504;47.312;11.060;2024-03-06T01:15:37;5.40;88.80
10903;DHT22;5504;47.312;11.060;2024-03-06T01:18:03;5.40;89.40
10903;DHT22;5504;47.312;11.060;2024-03-06T01:20:29;5.40;89.00
10903;DHT22;5504;47.312;11.060;2024-03-06T01:22:54;5.30;88.60
10903;DHT22;5504;47.312;11.060;2024-03-06T01:25:20;4.90;88.90
10903;DHT22;5504;47.312;11.060;2024-03-06T01:27:48;5.10;89.70
10903;DHT22;5504;47.312;11.060;2024-03-06T01:30:14;4.60;89.70
10903;DHT22;5504;47.312;11.060;2024-03-06T01:32:41;4.40;90.20
10903;DHT22;5504;47.312;11.060;2024-03-06T01:35:06;4.40;90.60
10903;DHT22;5504;47.312;11.060;2024-03-06T01:37:32;4.50;90.70
10903;DHT22;5504;47.312;11.060;2024-03-06T01:39:58;4.70;90.70
10903;DHT22;5504;47.312;11.060;2024-03-06T01:42:24;4.80;90.60
10903;DHT22;5504;47.312;11.060;2024-03-06T01:44:50;4.80;90.20
10903;DHT22;5504;47.312;11.060;2024-03-06T01:47:16;4.70;89.70
10903;DHT22;5504;47.312;11.060;2024-03-06T01:49:42;4.70;90.00
10903;DHT22;5504;47.312;11.060;2024-03-06T01:52:11;4.70;90.10
10903;DHT22;5504;47.312;11.060;2024-03-06T01:54:37;4.70;90.20
10903;DHT22;5504;47.312;11.060;2024-03-06T01:57:04;4.50;90.10
10903;DHT22;5504;47.312;11.060;2024-03-06T01:59:31;4.60;90.30
10903;DHT22;5504;47.312;11.060;2024-03-06T02:01:57;4.60;90.30
10903;DHT22;5504;47.312;11.060;2024-03-06T02:04:24;4.70;90.50
10903;DHT22;5504;47.312;11.060;2024-03-06T02:06:53;4.80;90.30
10903;DHT22;5504;47.312;11.060;2024-03-06T02:09:19;4.80;90.10
10903;DHT22;5504;47.312;11.060;2024-03-06T02:11:46;4.70;89.90
10903;DHT22;5504;47.312;11.060;2024-03-06T02:14:12;4.80;90.10
10903;DHT22;5504;47.312;11.060;2024-03-06T02:16:38;4.60;90.10
10903;DHT22;5504;47.312;11.060;2024-03-06T02:19:07;4.60;90.20
10903;DHT22;5504;47.312;11.060;2024-03-06T02:21:34;4.70;90.40
10903;DHT22;5504;47.312;11.060;2024-03-06T02:24:00;4.80;90.40
10903;DHT22;5504;47.312;11.060;2024-03-06T02:26:26;4.80;90.30
10903;DHT22;5504;47.312;11.060;2024-03-06T02:28:53;4.80;90.30
10903;DHT22;5504;47.312;11.060;2024-03-06T02:31:20;4.80;90.10
10903;DHT22;5504;47.312;11.060;2024-03-06T02:33:47;4.80;90.00
10903;DHT22;5504;47.312;11.060;2024-03-06T02:36:14;4.80;90.10
10903;DHT22;5504;47.312;11.060;2024-03-06T02:38:39;4.70;90.10
10903;DHT22;5504;47.312;11.060;2024-03-06T02:41:05;4.70;90.50
10903;DHT22;5504;47.312;11.060;2024-03-06T02:43:35;4.70;90.60
10903;DHT22;5504;47.312;11.060;2024-03-06T02:46:02;4.90;90.50
10903;DHT22;5504;47.312;11.060;2024-03-06T02:48:28;5.00;90.30
10903;DHT22;5504;47.312;11.060;2024-03-06T02:50:53;5.00;90.20
10903;DHT22;5504;47.312;11.060;2024-03-06T02:53:19;5.00;90.20
10903;DHT22;5504;47.312;11.060;2024-03-06T02:55:45;5.00;90.20
10903;DHT22;5504;47.312;11.060;2024-03-06T02:58:11;4.80;90.00
10903;DHT22;5504;47.312;11.060;2024-03-06T03:00:36;4.80;90.40
10903;DHT22;5504;47.312;11.060;2024-03-06T03:03:04;4.80;90.40
10903;DHT22;5504;47.312;11.060;2024-03-06T03:05:30;4.70;90.70
10903;DHT22;5504;47.312;11.060;2024-03-06T03:07:56;4.80;90.90
10903;DHT22;5504;47.312;11.060;2024-03-06T03:10:21;5.10;90.60
10903;DHT22;5504;47.312;11.060;2024-03-06T03:12:50;4.70;90.30
10903;DHT22;5504;47.312;11.060;2024-03-06T03:15:15;4.50;90.70
10903;DHT22;5504;47.312;11.060;2024-03-06T03:17:41;4.60;91.10
10903;DHT22;5504;47.312;11.060;2024-03-06T03:20:08;4.60;91.00
10903;DHT22;5504;47.312;11.060;2024-03-06T03:22:40;4.60;90.90
10903;DHT22;5504;47.312;11.060;2024-03-06T03:25:13;4.40;90.80
10903;DHT22;5504;47.312;11.060;2024-03-06T03:27:39;4.60;91.30
10903;DHT22;5504;47.312;11.060;2024-03-06T03:30:11;4.50;91.20
10903;DHT22;5504;47.312;11.060;2024-03-06T03:32:38;4.70;91.30
10903;DHT22;5504;47.312;11.060;2024-03-06T03:35:05;4.80;91.40
10903;DHT22;5504;47.312;11.060;2024-03-06T03:37:31;5.00;91.20
10903;DHT22;5504;47.312;11.060;2024-03-06T03:39:56;4.90;90.90
10903;DHT22;5504;47.312;11.060;2024-03-06T03:42:22;5.10;91.00
10903;DHT22;5504;47.312;11.060;2024-03-06T03:44:48;5.00;90.80
10903;DHT22;5504;47.312;11.060;2024-03-06T03:47:14;5.00;91.00
10903;DHT22;5504;47.312;11.060;2024-03-06T03:49:39;5.00;90.90
10903;DHT22;5504;47.312;11.060;2024-03-06T03:52:05;4.90;91.00
10903;DHT22;5504;47.312;11.060;2024-03-06T03:54:32;5.00;91.10
10903;DHT22;5504;47.312;11.060;2024-03-06T03:56:58;4.90;90.90
10903;DHT22;5504;47.312;11.060;2024-03-06T03:59:25;4.80;91.00
10903;DHT22;5504;47.312;11.060;2024-03-06T04:01:51;4.70;91.20
10903;DHT22;5504;47.312;11.060;2024-03-06T04:04:17;4.60;91.20
10903;DHT22;5504;47.312;11.060;2024-03-06T04:06:43;4.70;91.40
10903;DHT22;5504;47.312;11.060;2024-03-06T04:09:08;4.70;91.30
10903;DHT22;5504;47.312;11.060;2024-03-06T04:11:37;4.80;91.30
10903;DHT22;5504;47.312;11.060;2024-03-06T04:14:04;4.70;91.10
10903;DHT22;5504;47.312;11.060;2024-03-06T04:16:29;4.80;91.40
10903;DHT22;5504;47.312;11.060;2024-03-06T04:18:55;4.90;91.30
10903;DHT22;5504;47.312;11.060;2024-03-06T04:21:21;5.00;91.30
10903;DHT22;5504;47.312;11.060;2024-03-06T04:23:48;5.10;91.30
10903;DHT22;5504;47.312;11.060;2024-03-06T04:26:14;5.10;91.20
10903;DHT22;5504;47.312;11.060;2024-03-06T04:28:40;5.00;90.80
10903;DHT22;5504;47.312;11.060;2024-03-06T04:31:06;4.80;91.00
10903;DHT22;5504;47.312;11.060;2024-03-06T04:33:32;5.00;91.20
10903;DHT22;5504;47.312;11.060;2024-03-06T04:35:58;5.00;91.00
10903;DHT22;5504;47.312;11.060;2024-03-06T04:38:23;5.10;91.10
10903;DHT22;5504;47.312;11.060;2024-03-06T04:40:49;5.10;90.90
10903;DHT22;5504;47.312;11.060;2024-03-06T04:43:15;5.00;90.90
10903;DHT22;5504;47.312;11.060;2024-03-06T04:45:41;5.20;91.10
10903;DHT22;5504;47.312;11.060;2024-03-06T04:48:07;5.10;91.00
10903;DHT22;5504;47.312;11.060;2024-03-06T04:50:33;5.40;90.70
10903;DHT22;5504;47.312;11.060;2024-03-06T04:52:59;5.40;90.40
10903;DHT22;5504;47.312;11.060;2024-03-06T04:55:25;5.40;90.30
10903;DHT22;5504;47.312;11.060;2024-03-06T04:57:52;5.30;90.00
10903;DHT22;5504;47.312;11.060;2024-03-06T05:00:19;5.20;90.20
10903;DHT22;5504;47.312;11.060;2024-03-06T05:02:45;5.20;90.30
10903;DHT22;5504;47.312;11.060;2024-03-06T05:05:11;5.10;90.40
10903;DHT22;5504;47.312;11.060;2024-03-06T05:07:37;4.90;90.40
10903;DHT22;5504;47.312;11.060;2024-03-06T05:10:03;4.80;90.80
10903;DHT22;5504;47.312;11.060;2024-03-06T05:12:29;5.00;91.60
10903;DHT22;5504;47.312;11.060;2024-03-06T05:14:55;5.00;91.00
10903;DHT22;5504;47.312;11.060;2024-03-06T05:17:21;5.00;90.80
10903;DHT22;5504;47.312;11.060;2024-03-06T05:19:48;4.90;91.10
10903;DHT22;5504;47.312;11.060;2024-03-06T05:22:15;4.80;91.00
10903;DHT22;5504;47.312;11.060;2024-03-06T05:24:42;4.70;91.30
10903;DHT22;5504;47.312;11.060;2024-03-06T05:27:08;4.80;91.60
10903;DHT22;5504;47.312;11.060;2024-03-06T05:29:35;4.90;91.20
10903;DHT22;5504;47.312;11.060;2024-03-06T05:32:02;4.90;91.00
10903;DHT22;5504;47.312;11.060;2024-03-06T05:34:29;4.90;91.00
10903;DHT22;5504;47.312;11.060;2024-03-06T05:36:55;4.90;91.10
10903;DHT22;5504;47.312;11.060;2024-03-06T05:39:21;4.70;91.10
10903;DHT22;5504;47.312;11.060;2024-03-06T05:41:47;4.50;91.70
10903;DHT22;5504;47.312;11.060;2024-03-06T05:44:13;4.60;92.00
10903;DHT22;5504;47.312;11.060;2024-03-06T05:46:38;4.60;92.10
10903;DHT22;5504;47.312;11.060;2024-03-06T05:49:04;4.80;92.00
10903;DHT22;5504;47.312;11.060;2024-03-06T05:51:30;5.00;91.90
10903;DHT22;5504;47.312;11.060;2024-03-06T05:53:56;5.20;91.60
10903;DHT22;5504;47.312;11.060;2024-03-06T05:56:22;5.20;91.30
10903;DHT22;5504;47.312;11.060;2024-03-06T05:58:48;5.20;91.40
10903;DHT22;5504;47.312;11.060;2024-03-06T06:01:18;5.10;91.50
10903;DHT22;5504;47.312;11.060;2024-03-06T06:03:47;5.10;91.60
10903;DHT22;5504;47.312;11.060;2024-03-06T06:06:17;5.20;91.30
10903;DHT22;5504;47.312;11.060;2024-03-06T06:08:45;5.10;91.40
10903;DHT22;5504;47.312;11.060;2024-03-06T06:11:11;5.00;91.50
10903;DHT22;5504;47.312;11.060;2024-03-06T06:13:38;4.90;91.70
10903;DHT22;5504;47.312;11.060;2024-03-06T06:16:05;5.20;91.80
10903;DHT22;5504;47.312;11.060;2024-03-06T06:18:31;5.30;91.60
10903;DHT22;5504;47.312;11.060;2024-03-06T06:20:58;5.30;91.50
10903;DHT22;5504;47.312;11.060;2024-03-06T06:23:24;5.40;91.40
10903;DHT22;5504;47.312;11.060;2024-03-06T06:25:50;5.50;91.40
10903;DHT22;5504;47.312;11.060;2024-03-06T06:28:16;5.50;91.20
10903;DHT22;5504;47.312;11.060;2024-03-06T06:30:42;5.50;91.00
10903;DHT22;5504;47.312;11.060;2024-03-06T06:33:07;5.60;91.10
10903;DHT22;5504;47.312;11.060;2024-03-06T06:35:34;5.50;91.00
10903;DHT22;5504;47.312;11.060;2024-03-06T06:38:03;5.50;90.90
10903;DHT22;5504;47.312;11.060;2024-03-06T06:40:30;5.70;91.10
10903;DHT22;5504;47.312;11.060;2024-03-06T06:42:56;5.60;90.80
10903;DHT22;5504;47.312;11.060;2024-03-06T06:45:22;5.70;90.80
10903;DHT22;5504;47.312;11.060;2024-03-06T06:47:48;5.70;90.70
10903;DHT22;5504;47.312;11.060;2024-03-06T06:50:15;5.60;90.80
10903;DHT22;5504;47.312;11.060;2024-03-06T06:52:44;5.60;91.10
10903;DHT22;5504;47.312;11.060;2024-03-06T06:55:09;5.70;91.30
10903;DHT22;5504;47.312;11.060;2024-03-06T06:57:37;5.70;91.20
10903;DHT22;5504;47.312;11.060;2024-03-06T07:00:04;5.60;90.90
10903;DHT22;5504;47.312;11.060;2024-03-06T07:02:39;5.60;91.00
10903;DHT22;5504;47.312;11.060;2024-03-06T07:05:07;5.90;91.00
10903;DHT22;5504;47.312;11.060;2024-03-06T07:07:34;5.90;90.70
10903;DHT22;5504;47.312;11.060;2024-03-06T07:10:01;6.10;90.50
10903;DHT22;5504;47.312;11.060;2024-03-06T07:12:27;5.90;90.00
10903;DHT22;5504;47.312;11.060;2024-03-06T07:14:53;5.50;90.30
10903;DHT22;5504;47.312;11.060;2024-03-06T07:17:19;5.40;90.60
10903;DHT22;5504;47.312;11.060;2024-03-06T07:19:44;5.50;90.90
10903;DHT22;5504;47.312;11.060;2024-03-06T07:22:10;5.70;91.00
10903;DHT22;5504;47.312;11.060;2024-03-06T07:24:36;5.60;90.70
10903;DHT22;5504;47.312;11.060;2024-03-06T07:27:03;5.60;90.80
10903;DHT22;5504;47.312;11.060;2024-03-06T07:29:28;5.80;91.00
10903;DHT22;5504;47.312;11.060;2024-03-06T07:31:54;5.80;91.20
10903;DHT22;5504;47.312;11.060;2024-03-06T07:34:20;5.80;91.10
10903;DHT22;5504;47.312;11.060;2024-03-06T07:36:49;5.50;91.20
10903;DHT22;5504;47.312;11.060;2024-03-06T07:39:19;5.30;91.50
10903;DHT22;5504;47.312;11.060;2024-03-06T07:41:45;5.60;91.80
10903;DHT22;5504;47.312;11.060;2024-03-06T07:44:11;5.80;91.60
10903;DHT22;5504;47.312;11.060;2024-03-06T07:46:37;5.90;91.60
10903;DHT22;5504;47.312;11.060;2024-03-06T07:49:03;6.10;91.40
10903;DHT22;5504;47.312;11.060;2024-03-06T07:51:30;6.20;91.10
10903;DHT22;5504;47.312;11.060;2024-03-06T07:53:56;6.30;91.10
10903;DHT22;5504;47.312;11.060;2024-03-06T07:56:23;6.40;90.90
10903;DHT22;5504;47.312;11.060;2024-03-06T07:58:49;6.60;90.80
10903;DHT22;5504;47.312;11.060;2024-03-06T08:01:15;6.70;90.40
10903;DHT22;5504;47.312;11.060;2024-03-06T08:03:41;6.70;90.20
10903;DHT22;5504;47.312;11.060;2024-03-06T08:06:08;6.60;90.00
10903;DHT22;5504;47.312;11.060;2024-03-06T08:08:35;6.60;89.70
10903;DHT22;5504;47.312;11.060;2024-03-06T08:11:01;6.50;89.90
10903;DHT22;5504;47.312;11.060;2024-03-06T08:13:27;6.40;90.40
10903;DHT22;5504;47.312;11.060;2024-03-06T08:15:53;6.40;90.80
10903;DHT22;5504;47.312;11.060;2024-03-06T08:18:19;6.40;90.80
10903;DHT22;5504;47.312;11.060;2024-03-06T08:20:45;6.50;90.90
10903;DHT22;5504;47.312;11.060;2024-03-06T08:23:10;6.60;90.80
10903;DHT22;5504;47.312;11.060;2024-03-06T08:25:36;6.70;90.70
10903;DHT22;5504;47.312;11.060;2024-03-06T08:28:02;6.90;90.90
10903;DHT22;5504;47.312;11.060;2024-03-06T08:30:35;6.90;90.40
10903;DHT22;5504;47.312;11.060;2024-03-06T08:33:01;7.00;90.20
10903;DHT22;5504;47.312;11.060;2024-03-06T08:35:26;6.80;88.60
10903;DHT22;5504;47.312;11.060;2024-03-06T08:37:52;6.90;89.50
10903;DHT22;5504;47.312;11.060;2024-03-06T08:40:18;7.00;90.00
10903;DHT22;5504;47.312;11.060;2024-03-06T08:42:44;7.00;90.00
10903;DHT22;5504;47.312;11.060;2024-03-06T08:45:12;7.10;90.20
10903;DHT22;5504;47.312;11.060;2024-03-06T08:47:40;7.20;90.00
10903;DHT22;5504;47.312;11.060;2024-03-06T08:50:07;7.40;89.50
10903;DHT22;5504;47.312;11.060;2024-03-06T08:52:36;7.50;89.40
10903;DHT22;5504;47.312;11.060;2024-03-06T08:55:02;7.30;89.50
10903;DHT22;5504;47.312;11.060;2024-03-06T08:57:35;7.20;90.30
10903;DHT22;5504;47.312;11.060;2024-03-06T09:00:02;7.20;90.50
10903;DHT22;5504;47.312;11.060;2024-03-06T09:02:28;6.90;90.50
10903;DHT22;5504;47.312;11.060;2024-03-06T09:04:53;6.50;90.60
10903;DHT22;5504;47.312;11.060;2024-03-06T09:07:20;6.90;91.30
10903;DHT22;5504;47.312;11.060;2024-03-06T09:09:49;7.30;91.10
10903;DHT22;5504;47.312;11.060;2024-03-06T09:12:17;7.50;90.30
10903;DHT22;5504;47.312;11.060;2024-03-06T09:14:43;7.80;90.10
10903;DHT22;5504;47.312;11.060;2024-03-06T09:17:11;8.10;89.90
10903;DHT22;5504;47.312;11.060;2024-03-06T09:19:40;8.40;88.90
10903;DHT22;5504;47.312;11.060;2024-03-06T09:22:07;8.60;86.90
10903;DHT22;5504;47.312;11.060;2024-03-06T09:24:33;8.60;86.40
10903;DHT22;5504;47.312;11.060;2024-03-06T09:27:01;8.60;87.10
10903;DHT22;5504;47.312;11.060;2024-03-06T09:29:27;8.20;87.20
10903;DHT22;5504;47.312;11.060;2024-03-06T09:31:53;8.30;88.90
10903;DHT22;5504;47.312;11.060;2024-03-06T09:34:19;8.40;88.30
10903;DHT22;5504;47.312;11.060;2024-03-06T09:36:48;8.70;87.70
10903;DHT22;5504;47.312;11.060;2024-03-06T09:39:15;9.00;86.30
10903;DHT22;5504;47.312;11.060;2024-03-06T09:41:46;9.20;84.60
10903;DHT22;5504;47.312;11.060;2024-03-06T09:44:14;9.30;83.90
10903;DHT22;5504;47.312;11.060;2024-03-06T09:46:43;8.40;84.60
10903;DHT22;5504;47.312;11.060;2024-03-06T09:49:10;8.60;86.10
10903;DHT22;5504;47.312;11.060;2024-03-06T09:51:38;8.90;85.10
10903;DHT22;5504;47.312;11.060;2024-03-06T09:54:07;9.20;84.60
10903;DHT22;5504;47.312;11.060;2024-03-06T09:56:35;9.30;83.60
10903;DHT22;5504;47.312;11.060;2024-03-06T09:59:01;9.50;83.50
10903;DHT22;5504;47.312;11.060;2024-03-06T10:01:27;9.70;82.20
10903;DHT22;5504;47.312;11.060;2024-03-06T10:03:54;9.90;82.70
10903;DHT22;5504;47.312;11.060;2024-03-06T10:06:20;10.00;81.20
10903;DHT22;5504;47.312;11.060;2024-03-06T10:08:46;10.00;79.60
10903;DHT22;5504;47.312;11.060;2024-03-06T10:11:12;9.60;80.90
10903;DHT22;5504;47.312;11.060;2024-03-06T10:13:38;9.70;82.50
10903;DHT22;5504;47.312;11.060;2024-03-06T10:16:05;9.80;81.40
10903;DHT22;5504;47.312;11.060;2024-03-06T10:18:37;9.70;81.00
10903;DHT22;5504;47.312;11.060;2024-03-06T10:21:04;9.30;81.00
10903;DHT22;5504;47.312;11.060;2024-03-06T10:23:31;9.20;82.20
10903;DHT22;5504;47.312;11.060;2024-03-06T10:25:57;9.20;82.60
10903;DHT22;5504;47.312;11.060;2024-03-06T10:28:23;8.90;82.10
10903;DHT22;5504;47.312;11.060;2024-03-06T10:30:50;8.50;84.40
10903;DHT22;5504;47.312;11.060;2024-03-06T10:33:18;8.30;85.00
10903;DHT22;5504;47.312;11.060;2024-03-06T10:35:45;8.60;86.00
10903;DHT22;5504;47.312;11.060;2024-03-06T10:38:12;9.00;86.30
10903;DHT22;5504;47.312;11.060;2024-03-06T10:40:40;9.20;84.40
10903;DHT22;5504;47.312;11.060;2024-03-06T10:43:07;9.30;82.90
10903;DHT22;5504;47.312;11.060;2024-03-06T10:45:51;9.10;83.90
10903;DHT22;5504;47.312;11.060;2024-03-06T10:48:21;9.00;83.00
10903;DHT22;5504;47.312;11.060;2024-03-06T10:50:49;9.20;84.10
10903;DHT22;5504;47.312;11.060;2024-03-06T10:53:16;9.60;84.70
10903;DHT22;5504;47.312;11.060;2024-03-06T10:55:49;9.80;84.20
10903;DHT22;5504;47.312;11.060;2024-03-06T10:58:15;9.80;81.70
10903;DHT22;5504;47.312;11.060;2024-03-06T11:00:46;10.00;81.50
10903;DHT22;5504;47.312;11.060;2024-03-06T11:03:13;10.20;81.00
10903;DHT22;5504;47.312;11.060;2024-03-06T11:05:40;10.50;79.90
10903;DHT22;5504;47.312;11.060;2024-03-06T11:08:07;10.30;79.00
10903;DHT22;5504;47.312;11.060;2024-03-06T11:10:35;10.50;81.00
10903;DHT22;5504;47.312;11.060;2024-03-06T11:13:02;10.60;79.90
10903;DHT22;5504;47.312;11.060;2024-03-06T11:15:28;11.00;79.60
10903;DHT22;5504;47.312;11.060;2024-03-06T11:17:54;11.50;78.80
10903;DHT22;5504;47.312;11.060;2024-03-06T11:20:23;11.90;78.40
10903;DHT22;5504;47.312;11.060;2024-03-06T11:28:24;12.20;76.30
10903;DHT22;5504;47.312;11.060;2024-03-06T11:31:04;12.00;75.70
10903;DHT22;5504;47.312;11.060;2024-03-06T11:33:41;11.80;75.30
10903;DHT22;5504;47.312;11.060;2024-03-06T11:41:23;11.10;76.40
10903;DHT22;5504;47.312;11.060;2024-03-06T11:43:50;10.70;77.60
10903;DHT22;5504;47.312;11.060;2024-03-06T11:49:02;10.60;79.30
10903;DHT22;5504;47.312;11.060;2024-03-06T11:51:31;10.70;78.20
10903;DHT22;5504;47.312;11.060;2024-03-06T11:53:56;10.70;78.60
10903;DHT22;5504;47.312;11.060;2024-03-06T11:56:22;10.80;78.20
10903;DHT22;5504;47.312;11.060;2024-03-06T11:58:48;11.10;77.80
10903;DHT22;5504;47.312;11.060;2024-03-06T12:01:14;11.40;77.60
10903;DHT22;5504;47.312;11.060;2024-03-06T12:03:41;11.50;74.50
10903;DHT22;5504;47.312;11.060;2024-03-06T12:06:08;11.40;75.10
10903;DHT22;5504;47.312;11.060;2024-03-06T12:08:34;11.20;74.60
10903;DHT22;5504;47.312;11.060;2024-03-06T12:11:04;11.20;74.70
10903;DHT22;5504;47.312;11.060;2024-03-06T12:13:31;11.20;75.10
10903;DHT22;5504;47.312;11.060;2024-03-06T12:15:57;11.60;74.30
10903;DHT22;5504;47.312;11.060;2024-03-06T12:18:24;11.50;74.50
10903;DHT22;5504;47.312;11.060;2024-03-06T12:20:50;11.50;73.90
10903;DHT22;5504;47.312;11.060;2024-03-06T12:23:20;11.70;74.30
10903;DHT22;5504;47.312;11.060;2024-03-06T12:25:48;11.30;74.70
10903;DHT22;5504;47.312;11.060;2024-03-06T12:28:14;10.70;76.70
10903;DHT22;5504;47.312;11.060;2024-03-06T12:30:43;10.80;76.80
10903;DHT22;5504;47.312;11.060;2024-03-06T12:33:10;11.10;76.30
10903;DHT22;5504;47.312;11.060;2024-03-06T12:35:40;11.20;76.50
10903;DHT22;5504;47.312;11.060;2024-03-06T12:38:13;11.10;76.00
10903;DHT22;5504;47.312;11.060;2024-03-06T12:40:40;11.10;74.90
10903;DHT22;5504;47.312;11.060;2024-03-06T12:43:06;10.10;76.80
10903;DHT22;5504;47.312;11.060;2024-03-06T12:45:33;10.30;78.40
10903;DHT22;5504;47.312;11.060;2024-03-06T12:47:59;10.40;77.30
10903;DHT22;5504;47.312;11.060;2024-03-06T12:50:25;10.30;76.50
10903;DHT22;5504;47.312;11.060;2024-03-06T12:52:50;10.50;76.90
10903;DHT22;5504;47.312;11.060;2024-03-06T12:55:17;10.60;75.70
10903;DHT22;5504;47.312;11.060;2024-03-06T12:57:45;10.80;75.30
10903;DHT22;5504;47.312;11.060;2024-03-06T13:00:12;10.80;75.20
10903;DHT22;5504;47.312;11.060;2024-03-06T13:02:45;10.80;74.70
10903;DHT22;5504;47.312;11.060;2024-03-06T13:05:11;10.90;75.20
10903;DHT22;5504;47.312;11.060;2024-03-06T13:07:38;10.60;74.50
10903;DHT22;5504;47.312;11.060;2024-03-06T13:10:07;10.40;75.40
10903;DHT22;5504;47.312;11.060;2024-03-06T13:12:36;10.50;75.70
10903;DHT22;5504;47.312;11.060;2024-03-06T13:15:02;10.80;75.30
10903;DHT22;5504;47.312;11.060;2024-03-06T13:17:28;11.00;75.60
10903;DHT22;5504;47.312;11.060;2024-03-06T13:19:55;11.10;76.10
10903;DHT22;5504;47.312;11.060;2024-03-06T13:22:22;11.10;74.90
10903;DHT22;5504;47.312;11.060;2024-03-06T13:24:48;11.20;75.10
10903;DHT22;5504;47.312;11.060;2024-03-06T13:27:14;11.10;76.30
10903;DHT22;5504;47.312;11.060;2024-03-06T13:29:40;11.00;74.60
10903;DHT22;5504;47.312;11.060;2024-03-06T13:32:08;10.80;75.00
10903;DHT22;5504;47.312;11.060;2024-03-06T13:34:34;10.90;74.30
10903;DHT22;5504;47.312;11.060;2024-03-06T13:37:00;11.00;73.90
10903;DHT22;5504;47.312;11.060;2024-03-06T13:39:26;11.10;74.30
10903;DHT22;5504;47.312;11.060;2024-03-06T13:41:51;11.10;74.60
10903;DHT22;5504;47.312;11.060;2024-03-06T13:44:20;11.30;74.40
10903;DHT22;5504;47.312;11.060;2024-03-06T13:46:46;11.30;73.70
10903;DHT22;5504;47.312;11.060;2024-03-06T13:52:04;11.10;75.70
10903;DHT22;5504;47.312;11.060;2024-03-06T13:54:31;11.00;74.10
10903;DHT22;5504;47.312;11.060;2024-03-06T13:56:57;10.70;74.10
10903;DHT22;5504;47.312;11.060;2024-03-06T13:59:36;10.40;76.00
10903;DHT22;5504;47.312;11.060;2024-03-06T14:02:03;10.20;76.90
10903;DHT22;5504;47.312;11.060;2024-03-06T14:04:29;10.20;77.20
10903;DHT22;5504;47.312;11.060;2024-03-06T14:06:55;10.20;78.30
10903;DHT22;5504;47.312;11.060;2024-03-06T14:09:23;10.40;80.90
10903;DHT22;5504;47.312;11.060;2024-03-06T14:11:52;10.50;79.60
10903;DHT22;5504;47.312;11.060;2024-03-06T14:14:18;10.60;81.00
10903;DHT22;5504;47.312;11.060;2024-03-06T14:16:45;10.80;82.00
10903;DHT22;5504;47.312;11.060;2024-03-06T14:19:11;10.70;81.40
10903;DHT22;5504;47.312;11.060;2024-03-06T14:21:37;10.70;81.90
10903;DHT22;5504;47.312;11.060;2024-03-06T14:24:04;10.70;83.50
10903;DHT22;5504;47.312;11.060;2024-03-06T14:26:32;10.70;83.30
10903;DHT22;5504;47.312;11.060;2024-03-06T14:29:01;10.60;83.80
10903;DHT22;5504;47.312;11.060;2024-03-06T14:31:28;10.60;83.80
10903;DHT22;5504;47.312;11.060;2024-03-06T14:33:53;10.50;83.90
10903;DHT22;5504;47.312;11.060;2024-03-06T14:36:19;10.00;84.20
10903;DHT22;5504;47.312;11.060;2024-03-06T14:38:47;9.70;84.70
10903;DHT22;5504;47.312;11.060;2024-03-06T14:41:13;9.80;84.70
10903;DHT22;5504;47.312;11.060;2024-03-06T14:43:39;9.90;84.30
10903;DHT22;5504;47.312;11.060;2024-03-06T14:46:05;9.90;84.10
10903;DHT22;5504;47.312;11.060;2024-03-06T14:48:32;9.90;84.50
10903;DHT22;5504;47.312;11.060;2024-03-06T14:51:02;9.90;85.40
10903;DHT22;5504;47.312;11.060;2024-03-06T14:53:28;9.90;83.60
10903;DHT22;5504;47.312;11.060;2024-03-06T14:55:55;10.00;83.80
10903;DHT22;5504;47.312;11.060;2024-03-06T14:58:21;10.00;83.80
10903;DHT22;5504;47.312;11.060;2024-03-06T15:00:48;10.00;83.40
10903;DHT22;5504;47.312;11.060;2024-03-06T15:03:14;10.10;83.50
10903;DHT22;5504;47.312;11.060;2024-03-06T15:05:40;10.00;83.40
10903;DHT22;5504;47.312;11.060;2024-03-06T15:08:06;9.90;83.70
10903;DHT22;5504;47.312;11.060;2024-03-06T15:10:32;9.60;84.40
10903;DHT22;5504;47.312;11.060;2024-03-06T15:12:58;9.50;85.30
10903;DHT22;5504;47.312;11.060;2024-03-06T15:15:24;9.20;84.20
10903;DHT22;5504;47.312;11.060;2024-03-06T15:17:50;9.40;85.00
10903;DHT22;5504;47.312;11.060;2024-03-06T15:20:15;9.30;84.50
10903;DHT22;5504;47.312;11.060;2024-03-06T15:22:43;9.20;85.20
10903;DHT22;5504;47.312;11.060;2024-03-06T15:25:13;9.00;86.30
10903;DHT22;5504;47.312;11.060;2024-03-06T15:27:40;8.90;86.80
10903;DHT22;5504;47.312;11.060;2024-03-06T15:30:08;8.90;87.30
10903;DHT22;5504;47.312;11.060;2024-03-06T15:32:34;9.00;87.30
10903;DHT22;5504;47.312;11.060;2024-03-06T15:35:00;9.10;87.50
10903;DHT22;5504;47.312;11.060;2024-03-06T15:37:26;9.30;87.50
10903;DHT22;5504;47.312;11.060;2024-03-06T15:39:53;9.20;87.80
10903;DHT22;5504;47.312;11.060;2024-03-06T15:42:20;9.10;88.00
10903;DHT22;5504;47.312;11.060;2024-03-06T15:44:47;9.20;87.90
10903;DHT22;5504;47.312;11.060;2024-03-06T15:47:14;9.10;88.00
10903;DHT22;5504;47.312;11.060;2024-03-06T15:49:40;8.90;88.00
10903;DHT22;5504;47.312;11.060;2024-03-06T15:52:06;8.90;87.80
10903;DHT22;5504;47.312;11.060;2024-03-06T15:54:31;9.00;88.10
10903;DHT22;5504;47.312;11.060;2024-03-06T15:56:57;9.00;88.10